Time;durP1;ratioP1;P1;durP2;ratioP2;P2;SDS_P1;SDS_P2;PMS_P1;PMS_P2;Temp;Humidity;BMP_temperature;BMP_pressure;BME280_temperature;BME280_humidity;BME280_pressure;Samples;Min_cycle;Max_cycle;Signal;HPM_P1;HPM_P2
2022/06/30 00:01:51;;;;;;;6.65;2.75;;;;;;;;;;5093075;28;20027;-66
2022/06/30 00:04:17;;;;;;;7.38;3.28;;;;;;;;;;5093367;28;20380;-64
2022/06/30 00:06:42;;;;;;;4.88;2.65;;;;;;;;;;5093085;28;20030;-65
2022/06/30 00:09:08;;;;;;;5.47;2.63;;;;;;;;;;5097434;28;20111;-64
2022/06/30 00:11:34;;;;;;;7.82;2.80;;;;;;;;;;5114077;28;20102;-65
2022/06/30 00:13:59;;;;;;;5.22;2.55;;;;;;;;;;5098207;28;20024;-65
2022/06/30 00:16:25;;;;;;;6.15;2.58;;;;;;;;;;5087574;28;20024;-64
2022/06/30 00:18:50;;;;;;;6.05;2.53;;;;;;;;;;5850207;22;20001;-64
2022/06/30 00:21:16;;;;;;;4.68;2.33;;;;;;;;;;5027943;28;20045;-62
2022/06/30 00:23:41;;;;;;;7.40;2.83;;;;;;;;;;5025854;28;20061;-62
2022/06/30 00:26:07;;;;;;;6.45;2.80;;;;;;;;;;5033571;28;20040;-61
2022/06/30 00:28:33;;;;;;;5.18;2.55;;;;;;;;;;5033188;28;20132;-63
2022/06/30 00:30:58;;;;;;;4.60;2.60;;;;;;;;;;5028698;28;20481;-63
2022/06/30 00:33:24;;;;;;;6.22;2.65;;;;;;;;;;5030070;28;20030;-64
2022/06/30 00:35:50;;;;;;;5.78;2.65;;;;;;;;;;5033039;28;20022;-66
2022/06/30 00:38:16;;;;;;;5.50;2.58;;;;;;;;;;5033057;28;20032;-63
2022/06/30 00:40:44;;;;;;;6.45;2.67;;;;;;;;;;5033062;28;20033;-64
2022/06/30 00:43:10;;;;;;;7.32;2.70;;;;;;;;;;5033139;28;20442;-65
2022/06/30 00:45:41;;;;;;;5.78;2.80;;;;;;;;;;5033028;28;20057;-64
2022/06/30 00:48:07;;;;;;;5.70;2.75;;;;;;;;;;5032814;28;20033;-64
2022/06/30 00:50:33;;;;;;;5.03;2.53;;;;;;;;;;5032800;28;20029;-63
2022/06/30 00:53:02;;;;;;;7.97;2.85;;;;;;;;;;5032875;28;20033;-66
2022/06/30 00:55:28;;;;;;;8.93;2.80;;;;;;;;;;5032807;28;20308;-67
2022/06/30 00:57:56;;;;;;;8.65;3.28;;;;;;;;;;5032831;28;20092;-66
2022/06/30 01:00:23;;;;;;;7.32;3.05;;;;;;;;;;5032884;28;20020;-67
2022/06/30 01:02:51;;;;;;;5.97;2.72;;;;;;;;;;5032706;28;20029;-67
2022/06/30 01:05:16;;;;;;;7.40;2.80;;;;;;;;;;5032888;28;20060;-66
2022/06/30 01:07:43;;;;;;;5.78;2.75;;;;;;;;;;5031300;28;20061;-66
2022/06/30 01:12:53;;;;;;;3.70;2.83;;;;;;;;;;5032439;28;20068;-63
2022/06/30 01:15:20;;;;;;;5.07;2.55;;;;;;;;;;5032137;28;20060;-64
2022/06/30 01:17:47;;;;;;;7.93;2.88;;;;;;;;;;5031695;28;20414;-63
2022/06/30 01:20:15;;;;;;;7.07;2.65;;;;;;;;;;5031767;28;20069;-63
2022/06/30 01:22:41;;;;;;;4.43;2.92;;;;;;;;;;5032293;28;20053;-63
2022/06/30 01:25:09;;;;;;;4.95;2.70;;;;;;;;;;5032183;28;20069;-63
2022/06/30 01:27:36;;;;;;;4.88;2.83;;;;;;;;;;5032082;28;20029;-63
2022/06/30 01:30:02;;;;;;;7.00;2.97;;;;;;;;;;5032015;28;20029;-63
2022/06/30 01:32:29;;;;;;;11.77;2.80;;;;;;;;;;5031889;28;20079;-63
2022/06/30 01:34:56;;;;;;;6.88;2.53;;;;;;;;;;5031834;28;20029;-63
2022/06/30 01:37:22;;;;;;;5.22;3.08;;;;;;;;;;5031434;28;20382;-63
2022/06/30 01:39:48;;;;;;;6.03;2.80;;;;;;;;;;5030092;28;20030;-62
2022/06/30 01:42:14;;;;;;;7.03;2.85;;;;;;;;;;5032117;28;20355;-63
2022/06/30 01:44:39;;;;;;;4.50;2.65;;;;;;;;;;5032018;28;20026;-63
2022/06/30 01:47:05;;;;;;;5.18;2.35;;;;;;;;;;5029108;28;20017;-63
2022/06/30 01:49:31;;;;;;;5.40;2.50;;;;;;;;;;5029527;28;20022;-63
2022/06/30 01:51:56;;;;;;;4.60;2.60;;;;;;;;;;5029439;28;20051;-63
2022/06/30 01:54:23;;;;;;;7.00;2.53;;;;;;;;;;5029326;28;20018;-63
2022/06/30 01:56:49;;;;;;;6.25;2.58;;;;;;;;;;5028494;28;20099;-63
2022/06/30 01:59:14;;;;;;;5.03;2.75;;;;;;;;;;5031575;28;20441;-63
2022/06/30 02:01:40;;;;;;;4.43;2.50;;;;;;;;;;5031563;28;20064;-63
2022/06/30 02:06:51;;;;;;;8.55;2.60;;;;;;;;;;5012511;28;20028;-63
2022/06/30 02:09:17;;;;;;;5.95;2.38;;;;;;;;;;5012018;28;20479;-63
2022/06/30 02:11:43;;;;;;;5.20;2.70;;;;;;;;;;5011991;28;20044;-63
2022/06/30 02:14:08;;;;;;;5.40;2.33;;;;;;;;;;5012212;28;20034;-63
2022/06/30 02:16:34;;;;;;;5.38;2.58;;;;;;;;;;5011962;28;20022;-63
2022/06/30 02:19:00;;;;;;;5.40;2.92;;;;;;;;;;5011726;28;20117;-63
2022/06/30 02:21:25;;;;;;;4.97;2.40;;;;;;;;;;5018106;28;20469;-63
2022/06/30 02:23:51;;;;;;;5.50;2.40;;;;;;;;;;5034759;28;20029;-63
2022/06/30 02:26:18;;;;;;;4.35;2.65;;;;;;;;;;5035340;28;20083;-63
2022/06/30 02:28:43;;;;;;;4.75;2.70;;;;;;;;;;5035344;28;20029;-63
2022/06/30 02:31:12;;;;;;;5.45;2.47;;;;;;;;;;5035179;28;20021;-63
2022/06/30 02:33:41;;;;;;;5.47;2.85;;;;;;;;;;5034554;28;20094;-63
2022/06/30 02:36:07;;;;;;;4.97;2.67;;;;;;;;;;5035192;28;20029;-63
2022/06/30 02:38:33;;;;;;;5.80;2.90;;;;;;;;;;5034611;28;20537;-63
2022/06/30 02:40:59;;;;;;;4.65;2.55;;;;;;;;;;5034857;28;20031;-63
2022/06/30 02:43:24;;;;;;;5.38;2.42;;;;;;;;;;5035000;28;20030;-63
2022/06/30 02:45:50;;;;;;;5.47;2.88;;;;;;;;;;5034502;28;20084;-63
2022/06/30 02:48:16;;;;;;;5.78;2.63;;;;;;;;;;5034881;28;20510;-63
2022/06/30 02:50:44;;;;;;;6.55;2.50;;;;;;;;;;5034761;28;20117;-63
2022/06/30 02:53:10;;;;;;;5.88;2.47;;;;;;;;;;5034591;28;20029;-63
2022/06/30 02:55:36;;;;;;;6.15;2.88;;;;;;;;;;5034602;28;20025;-63
2022/06/30 02:58:01;;;;;;;8.27;2.67;;;;;;;;;;5034705;28;20087;-63
2022/06/30 03:00:27;;;;;;;5.20;2.60;;;;;;;;;;5034634;28;20462;-62
2022/06/30 03:02:52;;;;;;;5.93;2.67;;;;;;;;;;5034620;28;20068;-63
2022/06/30 03:05:18;;;;;;;8.18;4.85;;;;;;;;;;5034672;28;20128;-63
2022/06/30 03:07:43;;;;;;;6.45;3.03;;;;;;;;;;5034576;28;20028;-63
2022/06/30 03:10:09;;;;;;;5.22;2.83;;;;;;;;;;5034456;28;20397;-63
2022/06/30 03:12:37;;;;;;;8.50;2.83;;;;;;;;;;5033858;28;20366;-63
2022/06/30 03:15:03;;;;;;;4.82;2.70;;;;;;;;;;5034259;28;20101;-63
2022/06/30 03:17:28;;;;;;;5.65;2.80;;;;;;;;;;5034186;28;20075;-63
2022/06/30 03:19:54;;;;;;;7.60;2.80;;;;;;;;;;5034029;28;20498;-63
2022/06/30 03:22:19;;;;;;;3.85;2.65;;;;;;;;;;5032776;28;20435;-63
2022/06/30 03:24:45;;;;;;;4.78;2.60;;;;;;;;;;5034179;28;20025;-63
2022/06/30 03:27:10;;;;;;;5.88;2.80;;;;;;;;;;5034271;28;20049;-62
2022/06/30 03:29:36;;;;;;;5.45;2.30;;;;;;;;;;5033693;28;20116;-63
2022/06/30 03:32:02;;;;;;;9.00;2.97;;;;;;;;;;5034093;28;20112;-62
2022/06/30 03:34:27;;;;;;;4.65;2.75;;;;;;;;;;5034111;28;20068;-62
2022/06/30 03:36:53;;;;;;;6.72;3.58;;;;;;;;;;5033673;28;20053;-63
2022/06/30 03:39:18;;;;;;;7.40;2.75;;;;;;;;;;5033763;28;20041;-62
2022/06/30 03:41:44;;;;;;;4.43;2.72;;;;;;;;;;5033604;28;20025;-62
2022/06/30 03:44:09;;;;;;;4.78;2.53;;;;;;;;;;5033864;28;20502;-63
2022/06/30 03:46:35;;;;;;;9.32;3.10;;;;;;;;;;5033871;28;20485;-62
2022/06/30 03:49:00;;;;;;;6.38;2.60;;;;;;;;;;5032822;28;20395;-62
2022/06/30 03:51:26;;;;;;;5.00;2.97;;;;;;;;;;5032848;28;20053;-62
2022/06/30 03:53:54;;;;;;;3.33;2.63;;;;;;;;;;5033663;28;20033;-63
2022/06/30 03:56:20;;;;;;;4.63;2.80;;;;;;;;;;5033341;28;20385;-62
2022/06/30 03:58:46;;;;;;;6.40;3.05;;;;;;;;;;5033514;28;20025;-63
2022/06/30 04:01:11;;;;;;;6.15;3.10;;;;;;;;;;5033710;28;20064;-62
2022/06/30 04:03:37;;;;;;;9.27;3.25;;;;;;;;;;5033388;28;20120;-63
2022/06/30 04:06:02;;;;;;;5.70;2.80;;;;;;;;;;5033524;28;20044;-63
2022/06/30 04:08:28;;;;;;;6.10;3.47;;;;;;;;;;5033536;28;20029;-63
2022/06/30 04:10:54;;;;;;;6.97;3.20;;;;;;;;;;5033077;28;20033;-63
2022/06/30 04:13:19;;;;;;;6.65;2.90;;;;;;;;;;5033356;28;20371;-63
2022/06/30 04:15:45;;;;;;;7.57;3.00;;;;;;;;;;5031926;28;20040;-63
2022/06/30 04:18:12;;;;;;;6.95;3.13;;;;;;;;;;5033298;28;20025;-63
2022/06/30 04:20:37;;;;;;;8.27;3.30;;;;;;;;;;5033066;28;20053;-63
2022/06/30 04:23:03;;;;;;;7.90;2.97;;;;;;;;;;5033008;28;20033;-63
2022/06/30 04:25:28;;;;;;;5.88;3.05;;;;;;;;;;5031946;28;20029;-60
2022/06/30 04:27:57;;;;;;;8.77;3.15;;;;;;;;;;5032128;28;20052;-62
2022/06/30 04:33:08;;;;;;;6.13;3.13;;;;;;;;;;5033012;28;19923;-62
2022/06/30 04:35:35;;;;;;;5.80;3.00;;;;;;;;;;5032660;28;20029;-63
2022/06/30 04:38:02;;;;;;;7.00;3.17;;;;;;;;;;5032784;28;20037;-63
2022/06/30 04:43:13;;;;;;;5.97;3.45;;;;;;;;;;5032354;28;20119;-62
2022/06/30 04:45:38;;;;;;;7.15;4.07;;;;;;;;;;5032144;28;20026;-62
2022/06/30 04:48:04;;;;;;;7.55;3.50;;;;;;;;;;5032662;28;20488;-63
2022/06/30 04:50:30;;;;;;;5.35;3.60;;;;;;;;;;5032509;28;20116;-63
2022/06/30 04:52:55;;;;;;;6.55;3.80;;;;;;;;;;5032206;28;20122;-63
2022/06/30 04:55:21;;;;;;;6.50;3.72;;;;;;;;;;5031953;28;20025;-63
2022/06/30 04:57:47;;;;;;;5.90;4.07;;;;;;;;;;5032449;28;20441;-62
2022/06/30 05:00:13;;;;;;;5.50;3.53;;;;;;;;;;5032405;28;20278;-62
2022/06/30 05:02:38;;;;;;;11.85;3.40;;;;;;;;;;5032462;28;20040;-63
2022/06/30 05:05:05;;;;;;;7.78;3.97;;;;;;;;;;5032259;28;20529;-62
2022/06/30 05:07:30;;;;;;;8.88;4.63;;;;;;;;;;5032147;28;20027;-62
2022/06/30 05:09:56;;;;;;;6.60;3.40;;;;;;;;;;5031834;28;20033;-62
2022/06/30 05:12:22;;;;;;;7.10;3.90;;;;;;;;;;5032337;28;20040;-63
2022/06/30 05:14:47;;;;;;;8.25;3.95;;;;;;;;;;5032269;28;20025;-62
2022/06/30 05:17:13;;;;;;;9.93;4.15;;;;;;;;;;5031886;28;20045;-63
2022/06/30 05:19:39;;;;;;;8.30;4.05;;;;;;;;;;5031990;28;20255;-63
2022/06/30 05:22:05;;;;;;;6.65;4.40;;;;;;;;;;5031810;28;20034;-63
2022/06/30 05:27:16;;;;;;;9.73;4.70;;;;;;;;;;5032345;28;20041;-63
2022/06/30 05:29:42;;;;;;;8.98;4.40;;;;;;;;;;5031755;28;20041;-62
2022/06/30 05:32:08;;;;;;;10.02;4.20;;;;;;;;;;5032066;28;20033;-62
2022/06/30 05:34:34;;;;;;;7.38;4.03;;;;;;;;;;5032097;28;20030;-62
2022/06/30 05:37:00;;;;;;;7.18;3.97;;;;;;;;;;5031790;28;20172;-62
2022/06/30 05:39:26;;;;;;;9.60;4.30;;;;;;;;;;5031604;28;20484;-62
2022/06/30 05:41:51;;;;;;;7.57;4.05;;;;;;;;;;5031981;28;20037;-62
2022/06/30 05:44:17;;;;;;;7.30;4.25;;;;;;;;;;5031892;28;20028;-63
2022/06/30 05:46:43;;;;;;;8.18;3.95;;;;;;;;;;5031920;28;20030;-63
2022/06/30 05:49:09;;;;;;;6.13;3.35;;;;;;;;;;5031843;28;20079;-62
2022/06/30 05:51:35;;;;;;;10.20;4.78;;;;;;;;;;5031673;28;20029;-63
2022/06/30 05:54:01;;;;;;;7.95;4.30;;;;;;;;;;5030455;28;20029;-63
2022/06/30 05:56:27;;;;;;;10.18;4.63;;;;;;;;;;5031886;28;20053;-62
2022/06/30 05:58:53;;;;;;;8.13;4.65;;;;;;;;;;5033807;28;20406;-62
2022/06/30 06:01:18;;;;;;;8.65;4.22;;;;;;;;;;5035687;28;20106;-63
2022/06/30 06:03:44;;;;;;;7.03;3.90;;;;;;;;;;5035665;28;20025;-63
2022/06/30 06:06:10;;;;;;;9.63;4.50;;;;;;;;;;5035570;28;20383;-62
2022/06/30 06:08:35;;;;;;;8.18;4.53;;;;;;;;;;5035385;28;20101;-63
2022/06/30 06:11:01;;;;;;;9.18;5.05;;;;;;;;;;5035520;28;20481;-62
2022/06/30 06:13:27;;;;;;;6.75;4.10;;;;;;;;;;5035285;28;20061;-62
2022/06/30 06:15:53;;;;;;;9.13;4.10;;;;;;;;;;5035232;28;20025;-63
2022/06/30 06:18:18;;;;;;;10.80;4.50;;;;;;;;;;5035586;28;20437;-63
2022/06/30 06:20:44;;;;;;;11.95;5.15;;;;;;;;;;5035782;28;20133;-63
2022/06/30 06:23:09;;;;;;;8.80;4.50;;;;;;;;;;5054972;28;20036;-63
2022/06/30 06:25:35;;;;;;;6.70;4.47;;;;;;;;;;5055092;28;20078;-63
2022/06/30 06:30:44;;;;;;;8.90;4.47;;;;;;;;;;5055049;28;20504;-62
2022/06/30 06:33:10;;;;;;;7.60;4.50;;;;;;;;;;5055319;28;20025;-63
2022/06/30 06:35:35;;;;;;;6.90;4.45;;;;;;;;;;5054900;28;20033;-63
2022/06/30 06:38:01;;;;;;;8.38;4.93;;;;;;;;;;5054692;28;20428;-63
2022/06/30 06:40:27;;;;;;;9.40;5.80;;;;;;;;;;5054842;28;20059;-63
2022/06/30 06:42:53;;;;;;;13.25;5.40;;;;;;;;;;5054896;28;20257;-63
2022/06/30 06:45:19;;;;;;;11.85;5.20;;;;;;;;;;5054770;28;20509;-62
2022/06/30 06:47:45;;;;;;;10.60;4.90;;;;;;;;;;5054696;28;20473;-60
2022/06/30 06:50:10;;;;;;;11.00;5.00;;;;;;;;;;5054422;28;20036;-63
2022/06/30 06:52:36;;;;;;;10.65;5.13;;;;;;;;;;5054471;28;20025;-63
2022/06/30 06:55:03;;;;;;;7.90;5.13;;;;;;;;;;5054603;28;20080;-62
2022/06/30 06:57:37;;;;;;;14.02;5.50;;;;;;;;;;5054412;28;20025;-62
2022/06/30 07:00:07;;;;;;;15.18;5.43;;;;;;;;;;5054363;28;20103;-62
2022/06/30 07:02:33;;;;;;;11.25;5.20;;;;;;;;;;5053210;28;20056;-63
2022/06/30 07:04:59;;;;;;;12.02;5.65;;;;;;;;;;5054344;28;20075;-63
2022/06/30 07:07:24;;;;;;;11.45;5.28;;;;;;;;;;5054359;28;20028;-62
2022/06/30 07:09:50;;;;;;;12.23;5.68;;;;;;;;;;5041463;28;20207;-62
2022/06/30 07:12:16;;;;;;;10.13;5.93;;;;;;;;;;5034324;28;20052;-62
2022/06/30 07:14:41;;;;;;;9.18;5.18;;;;;;;;;;5034567;28;20036;-62
2022/06/30 07:17:07;;;;;;;11.43;5.78;;;;;;;;;;5034478;28;20519;-62
2022/06/30 07:19:33;;;;;;;10.32;6.13;;;;;;;;;;5033937;28;20552;-62
2022/06/30 07:21:58;;;;;;;10.73;5.60;;;;;;;;;;5045130;28;20033;-62
2022/06/30 07:24:24;;;;;;;11.75;6.15;;;;;;;;;;5050363;28;20059;-62
2022/06/30 07:26:50;;;;;;;8.02;5.95;;;;;;;;;;5033997;28;20382;-62
2022/06/30 07:29:16;;;;;;;10.48;6.22;;;;;;;;;;5033888;28;20083;-63
2022/06/30 07:31:42;;;;;;;11.98;6.25;;;;;;;;;;5034137;28;20035;-62
2022/06/30 07:34:08;;;;;;;8.73;6.45;;;;;;;;;;5033926;28;20025;-62
2022/06/30 07:36:33;;;;;;;12.30;6.68;;;;;;;;;;5034089;28;20048;-62
2022/06/30 07:38:59;;;;;;;9.27;6.55;;;;;;;;;;5033821;28;20037;-62
2022/06/30 07:41:24;;;;;;;12.15;7.25;;;;;;;;;;5033893;28;20073;-62
2022/06/30 07:43:50;;;;;;;12.95;7.40;;;;;;;;;;5033834;28;20437;-62
2022/06/30 07:46:17;;;;;;;10.15;6.88;;;;;;;;;;5028336;28;20072;-62
2022/06/30 07:48:43;;;;;;;10.55;7.20;;;;;;;;;;5013765;28;20030;-62
2022/06/30 07:51:09;;;;;;;11.95;7.68;;;;;;;;;;5014036;28;20026;-62
2022/06/30 07:53:34;;;;;;;9.98;7.55;;;;;;;;;;5013953;28;20036;-62
2022/06/30 07:56:00;;;;;;;9.90;7.22;;;;;;;;;;5014004;28;20105;-62
2022/06/30 07:58:26;;;;;;;13.05;8.00;;;;;;;;;;5013844;28;20022;-62
2022/06/30 08:00:51;;;;;;;15.45;7.78;;;;;;;;;;5013819;28;20113;-62
2022/06/30 08:03:17;;;;;;;15.20;8.80;;;;;;;;;;5013755;28;20117;-63
2022/06/30 08:05:43;;;;;;;14.32;8.18;;;;;;;;;;5013774;28;20149;-63
2022/06/30 08:08:10;;;;;;;13.75;8.93;;;;;;;;;;5013768;28;20030;-63
2022/06/30 08:10:35;;;;;;;15.90;9.38;;;;;;;;;;5013591;28;20404;-63
2022/06/30 08:13:01;;;;;;;11.88;8.40;;;;;;;;;;5013753;28;20053;-62
2022/06/30 08:15:27;;;;;;;14.60;8.95;;;;;;;;;;5013747;28;20097;-62
2022/06/30 08:17:52;;;;;;;14.23;9.65;;;;;;;;;;5013345;28;20045;-62
2022/06/30 08:20:18;;;;;;;14.77;9.98;;;;;;;;;;5012704;28;20042;-62
2022/06/30 08:22:43;;;;;;;14.55;9.25;;;;;;;;;;5033268;28;20064;-62
2022/06/30 08:25:09;;;;;;;16.88;10.50;;;;;;;;;;5033136;28;20030;-62
2022/06/30 08:27:35;;;;;;;15.77;10.60;;;;;;;;;;5032666;28;20113;-62
2022/06/30 08:30:01;;;;;;;17.13;12.35;;;;;;;;;;5033003;28;20111;-62
2022/06/30 08:32:26;;;;;;;17.85;12.70;;;;;;;;;;5033086;28;20025;-62
2022/06/30 08:34:52;;;;;;;20.55;12.98;;;;;;;;;;5033025;28;20025;-62
2022/06/30 08:37:17;;;;;;;20.50;14.52;;;;;;;;;;5032966;28;20032;-62
2022/06/30 08:42:30;;;;;;;19.20;14.60;;;;;;;;;;5033082;28;20394;-63
2022/06/30 08:47:50;;;;;;;23.88;15.45;;;;;;;;;;5019221;28;20033;-63
2022/06/30 08:50:17;;;;;;;20.63;15.63;;;;;;;;;;5032809;28;20389;-62
2022/06/30 08:52:57;;;;;;;23.88;16.42;;;;;;;;;;5032876;28;20538;-63
2022/06/30 08:55:28;;;;;;;23.00;16.48;;;;;;;;;;5032728;28;20079;-62
2022/06/30 08:58:07;;;;;;;20.40;16.48;;;;;;;;;;5032716;28;20042;-63
2022/06/30 09:00:35;;;;;;;22.83;16.80;;;;;;;;;;5032646;28;20045;-62
2022/06/30 09:03:02;;;;;;;25.67;17.17;;;;;;;;;;5032374;28;20087;-63
2022/06/30 09:05:28;;;;;;;20.52;14.77;;;;;;;;;;5032678;28;20104;-63
2022/06/30 09:07:54;;;;;;;17.83;14.35;;;;;;;;;;5032172;28;20040;-63
2022/06/30 09:10:22;;;;;;;17.75;14.93;;;;;;;;;;5032485;28;20037;-62
2022/06/30 09:13:01;;;;;;;17.67;14.15;;;;;;;;;;5032556;28;20108;-63
2022/06/30 09:15:31;;;;;;;22.27;17.58;;;;;;;;;;5031221;28;20025;-63
2022/06/30 09:17:58;;;;;;;22.60;17.67;;;;;;;;;;5032395;28;20034;-63
2022/06/30 09:20:37;;;;;;;24.90;19.13;;;;;;;;;;5032382;28;20346;-63
2022/06/30 09:23:21;;;;;;;18.88;16.27;;;;;;;;;;5051952;28;20028;-63
2022/06/30 09:25:49;;;;;;;19.85;15.93;;;;;;;;;;5052423;28;20194;-63
2022/06/30 09:28:15;;;;;;;18.70;14.82;;;;;;;;;;5052232;28;20021;-63
2022/06/30 09:30:40;;;;;;;18.58;15.75;;;;;;;;;;5051957;28;20033;-63
2022/06/30 09:33:08;;;;;;;19.48;16.20;;;;;;;;;;5058486;28;20024;-63
2022/06/30 09:35:34;;;;;;;17.95;15.68;;;;;;;;;;5058670;28;20029;-63
2022/06/30 09:38:04;;;;;;;12.38;11.07;;;;;;;;;;5058630;28;20095;-63
2022/06/30 09:40:34;;;;;;;16.27;14.07;;;;;;;;;;5059149;28;20435;-63
2022/06/30 09:43:00;;;;;;;15.13;12.68;;;;;;;;;;5058614;28;20395;-62
2022/06/30 09:45:52;;;;;;;16.63;12.15;;;;;;;;;;5058405;28;20028;-63
2022/06/30 09:48:17;;;;;;;14.65;12.52;;;;;;;;;;5055627;28;20094;-63
2022/06/30 09:50:56;;;;;;;13.57;12.18;;;;;;;;;;5058583;28;20432;-63
2022/06/30 09:53:21;;;;;;;17.58;12.52;;;;;;;;;;5058532;28;20029;-63
2022/06/30 09:55:48;;;;;;;14.48;13.00;;;;;;;;;;5058730;28;20028;-63
2022/06/30 09:58:35;;;;;;;14.40;12.70;;;;;;;;;;5058484;28;20033;-63
2022/06/30 10:01:01;;;;;;;16.35;14.05;;;;;;;;;;5058337;28;20060;-63
2022/06/30 10:03:27;;;;;;;13.70;12.25;;;;;;;;;;5058352;28;20032;-63
2022/06/30 10:06:09;;;;;;;11.27;10.07;;;;;;;;;;5056468;28;20025;-63
2022/06/30 10:08:34;;;;;;;13.05;11.43;;;;;;;;;;5027634;28;20041;-62
2022/06/30 10:11:01;;;;;;;12.63;11.00;;;;;;;;;;5037967;28;20044;-63
2022/06/30 10:13:27;;;;;;;12.57;10.60;;;;;;;;;;5038171;28;20112;-62
2022/06/30 10:15:54;;;;;;;12.55;10.52;;;;;;;;;;5038487;28;20097;-62
2022/06/30 10:18:30;;;;;;;13.13;10.23;;;;;;;;;;5038396;28;20159;-63
2022/06/30 10:20:56;;;;;;;12.98;11.68;;;;;;;;;;5039539;28;20042;-63
2022/06/30 10:23:23;;;;;;;12.40;11.18;;;;;;;;;;5058173;28;20033;-63
2022/06/30 10:25:50;;;;;;;17.10;11.85;;;;;;;;;;5058479;28;20076;-63
2022/06/30 10:28:22;;;;;;;13.05;10.63;;;;;;;;;;5058173;28;20029;-63
2022/06/30 10:30:53;;;;;;;12.85;11.02;;;;;;;;;;5057896;28;20086;-63
2022/06/30 10:33:30;;;;;;;12.73;11.07;;;;;;;;;;5031504;28;20048;-63
2022/06/30 10:36:13;;;;;;;15.00;10.95;;;;;;;;;;5018589;28;20025;-63
2022/06/30 10:38:51;;;;;;;11.52;10.13;;;;;;;;;;5018524;28;20368;-63
2022/06/30 10:41:18;;;;;;;13.18;10.43;;;;;;;;;;5017078;28;20018;-63
2022/06/30 10:44:05;;;;;;;9.57;8.50;;;;;;;;;;5015361;28;20050;-63
2022/06/30 10:46:56;;;;;;;13.50;10.68;;;;;;;;;;5015336;28;20052;-63
2022/06/30 10:49:27;;;;;;;10.30;9.27;;;;;;;;;;5013439;28;20033;-63
2022/06/30 10:52:26;;;;;;;9.70;8.70;;;;;;;;;;5015010;28;20033;-63
2022/06/30 10:55:01;;;;;;;11.07;8.45;;;;;;;;;;5015120;28;20033;-63
2022/06/30 10:57:26;;;;;;;8.60;7.70;;;;;;;;;;5014861;28;20093;-63
2022/06/30 10:59:52;;;;;;;10.10;7.53;;;;;;;;;;5014999;28;20121;-63
2022/06/30 11:02:21;;;;;;;8.52;7.50;;;;;;;;;;5015025;28;20029;-63
2022/06/30 11:04:49;;;;;;;8.85;7.68;;;;;;;;;;5014952;28;20083;-63
2022/06/30 11:07:18;;;;;;;11.75;9.05;;;;;;;;;;5014336;28;20028;-63
2022/06/30 11:09:43;;;;;;;9.03;8.07;;;;;;;;;;5014707;28;20037;-63
2022/06/30 11:12:13;;;;;;;10.05;8.52;;;;;;;;;;5014778;28;20259;-63
2022/06/30 11:14:48;;;;;;;9.70;8.40;;;;;;;;;;5014867;28;20018;-63
2022/06/30 11:17:19;;;;;;;8.13;7.32;;;;;;;;;;5014638;28;20041;-63
2022/06/30 11:19:46;;;;;;;9.48;8.57;;;;;;;;;;5014469;28;20078;-63
2022/06/30 11:22:17;;;;;;;10.27;8.23;;;;;;;;;;5027108;28;20034;-63
2022/06/30 11:24:45;;;;;;;9.02;7.90;;;;;;;;;;5034315;28;20056;-64
2022/06/30 11:27:17;;;;;;;10.27;8.98;;;;;;;;;;5032461;28;20033;-63
2022/06/30 11:29:45;;;;;;;9.25;8.30;;;;;;;;;;5034165;28;20080;-63
2022/06/30 11:32:11;;;;;;;10.48;9.30;;;;;;;;;;5034179;28;20359;-63
2022/06/30 11:34:40;;;;;;;11.60;9.45;;;;;;;;;;5034140;28;20025;-63
2022/06/30 11:37:09;;;;;;;9.57;8.60;;;;;;;;;;5034000;28;20447;-63
2022/06/30 11:39:35;;;;;;;10.23;9.10;;;;;;;;;;5033961;28;20029;-63
2022/06/30 11:42:06;;;;;;;10.23;8.75;;;;;;;;;;5033806;28;20355;-64
2022/06/30 11:44:40;;;;;;;12.75;9.65;;;;;;;;;;5034297;28;20313;-63
2022/06/30 11:47:10;;;;;;;9.05;8.02;;;;;;;;;;5033805;28;20432;-63
2022/06/30 11:49:41;;;;;;;9.93;8.75;;;;;;;;;;5033518;28;20041;-63
2022/06/30 11:52:15;;;;;;;11.70;9.00;;;;;;;;;;5033938;28;20033;-63
2022/06/30 11:54:54;;;;;;;11.50;8.43;;;;;;;;;;5032792;28;20021;-63
2022/06/30 11:57:22;;;;;;;9.75;8.00;;;;;;;;;;5033818;28;20498;-63
2022/06/30 11:59:51;;;;;;;9.75;8.70;;;;;;;;;;5033622;28;20363;-64
2022/06/30 12:02:17;;;;;;;10.45;9.25;;;;;;;;;;5033644;28;20022;-63
2022/06/30 12:04:43;;;;;;;10.20;7.63;;;;;;;;;;5033600;28;20544;-63
2022/06/30 12:07:12;;;;;;;12.05;9.20;;;;;;;;;;5033620;28;20116;-63
2022/06/30 12:09:38;;;;;;;10.52;9.05;;;;;;;;;;5033051;28;20021;-64
2022/06/30 12:12:04;;;;;;;9.07;8.18;;;;;;;;;;5033383;28;20025;-64
2022/06/30 12:14:35;;;;;;;11.63;9.50;;;;;;;;;;5033485;28;20096;-63
2022/06/30 12:17:01;;;;;;;12.32;9.88;;;;;;;;;;5033178;28;20075;-63
2022/06/30 12:19:26;;;;;;;9.60;8.68;;;;;;;;;;5032650;28;20052;-64
2022/06/30 12:21:54;;;;;;;10.05;8.98;;;;;;;;;;5042984;28;20390;-63
2022/06/30 12:24:21;;;;;;;10.18;9.18;;;;;;;;;;5052926;28;20027;-63
2022/06/30 12:26:57;;;;;;;11.30;8.52;;;;;;;;;;5052993;28;20039;-63
2022/06/30 12:29:27;;;;;;;10.30;9.20;;;;;;;;;;5052598;28;20020;-63
2022/06/30 12:32:08;;;;;;;12.73;9.80;;;;;;;;;;5053044;28;20032;-63
2022/06/30 12:34:48;;;;;;;11.63;9.60;;;;;;;;;;5052928;28;20289;-63
2022/06/30 12:37:13;;;;;;;11.90;8.75;;;;;;;;;;5052853;28;20081;-63
2022/06/30 12:39:45;;;;;;;11.05;9.00;;;;;;;;;;5052459;28;20029;-63
2022/06/30 12:42:11;;;;;;;10.48;8.57;;;;;;;;;;5052890;28;20082;-63
2022/06/30 12:44:38;;;;;;;8.88;7.28;;;;;;;;;;5052725;28;20108;-63
2022/06/30 12:47:09;;;;;;;9.80;8.80;;;;;;;;;;5052534;28;20033;-63
2022/06/30 12:49:39;;;;;;;12.70;8.52;;;;;;;;;;5052236;28;20037;-63
2022/06/30 12:52:16;;;;;;;9.77;8.73;;;;;;;;;;5052330;28;20558;-63
2022/06/30 12:54:56;;;;;;;11.60;8.98;;;;;;;;;;5052285;28;20040;-63
2022/06/30 12:57:26;;;;;;;11.85;8.70;;;;;;;;;;5046494;28;20139;-63
2022/06/30 12:59:54;;;;;;;10.40;9.35;;;;;;;;;;5032271;28;20124;-63
2022/06/30 13:02:21;;;;;;;11.90;9.88;;;;;;;;;;5032862;28;20065;-63
2022/06/30 13:04:56;;;;;;;13.15;11.15;;;;;;;;;;5032404;28;20030;-63
2022/06/30 13:07:22;;;;;;;11.68;10.43;;;;;;;;;;5036189;28;20037;-63
2022/06/30 13:09:49;;;;;;;14.30;9.82;;;;;;;;;;5032214;28;20072;-63
2022/06/30 13:12:16;;;;;;;12.02;9.23;;;;;;;;;;5031990;28;20029;-63
2022/06/30 13:14:42;;;;;;;11.25;10.02;;;;;;;;;;5032355;28;20026;-63
2022/06/30 13:17:08;;;;;;;12.68;9.13;;;;;;;;;;5031657;28;20037;-63
2022/06/30 13:19:34;;;;;;;11.15;9.95;;;;;;;;;;5031717;28;20060;-63
2022/06/30 13:22:00;;;;;;;9.52;8.38;;;;;;;;;;5042836;28;20543;-63
2022/06/30 13:24:26;;;;;;;9.68;8.68;;;;;;;;;;5052197;28;20416;-62
2022/06/30 13:26:54;;;;;;;9.60;8.25;;;;;;;;;;5052084;28;20036;-63
2022/06/30 13:29:20;;;;;;;9.65;8.30;;;;;;;;;;5051981;28;20025;-63
2022/06/30 13:31:46;;;;;;;9.38;7.07;;;;;;;;;;5052186;28;20078;-63
2022/06/30 13:34:12;;;;;;;8.00;7.20;;;;;;;;;;5051720;28;20474;-63
2022/06/30 13:36:40;;;;;;;8.30;7.43;;;;;;;;;;5051560;28;20462;-63
2022/06/30 13:39:07;;;;;;;9.43;7.45;;;;;;;;;;5051930;28;20037;-63
2022/06/30 13:41:33;;;;;;;9.35;7.68;;;;;;;;;;5052030;28;20040;-63
2022/06/30 13:44:00;;;;;;;8.98;7.95;;;;;;;;;;5052046;28;20025;-63
2022/06/30 13:46:30;;;;;;;8.05;6.70;;;;;;;;;;5052006;28;20021;-63
2022/06/30 13:48:56;;;;;;;10.23;7.35;;;;;;;;;;5051774;28;20053;-63
2022/06/30 13:51:21;;;;;;;8.15;7.13;;;;;;;;;;5050411;28;20053;-63
2022/06/30 13:53:47;;;;;;;8.85;7.95;;;;;;;;;;5052038;28;20028;-63
2022/06/30 13:56:13;;;;;;;8.80;7.90;;;;;;;;;;5051873;28;20029;-63
2022/06/30 13:58:38;;;;;;;8.27;7.13;;;;;;;;;;5051712;28;20074;-63
2022/06/30 14:01:05;;;;;;;7.78;6.40;;;;;;;;;;5051903;28;20479;-63
2022/06/30 14:03:31;;;;;;;7.18;6.28;;;;;;;;;;5051811;28;20076;-63
2022/06/30 14:05:57;;;;;;;10.40;7.47;;;;;;;;;;5051296;28;20470;-63
2022/06/30 14:08:22;;;;;;;8.20;7.40;;;;;;;;;;5037689;28;20105;-63
2022/06/30 14:10:48;;;;;;;10.05;7.95;;;;;;;;;;5011904;28;20108;-63
2022/06/30 14:13:14;;;;;;;9.18;7.50;;;;;;;;;;5012040;28;20030;-63
2022/06/30 14:15:39;;;;;;;8.32;7.53;;;;;;;;;;5012037;28;20104;-63
2022/06/30 14:18:05;;;;;;;10.27;8.20;;;;;;;;;;5012423;28;20036;-63
2022/06/30 14:20:31;;;;;;;10.32;8.90;;;;;;;;;;5015298;28;20046;-63
2022/06/30 14:22:57;;;;;;;10.13;9.13;;;;;;;;;;5034255;28;20029;-63
2022/06/30 14:25:23;;;;;;;9.20;8.23;;;;;;;;;;5035331;28;20112;-63
2022/06/30 14:27:50;;;;;;;9.02;8.07;;;;;;;;;;5035564;28;20109;-63
2022/06/30 14:30:16;;;;;;;9.02;7.75;;;;;;;;;;5035335;28;20456;-63
2022/06/30 14:32:42;;;;;;;8.80;7.88;;;;;;;;;;5034794;28;20110;-63
2022/06/30 14:35:10;;;;;;;11.32;7.65;;;;;;;;;;5035000;28;20030;-63
2022/06/30 14:37:39;;;;;;;15.82;9.45;;;;;;;;;;5035260;28;20021;-63
2022/06/30 14:40:10;;;;;;;8.75;7.20;;;;;;;;;;5035254;28;20029;-63
2022/06/30 14:42:44;;;;;;;8.07;7.28;;;;;;;;;;5035244;28;20025;-63
2022/06/30 14:45:21;;;;;;;8.00;7.22;;;;;;;;;;5035173;28;20418;-63
2022/06/30 14:47:49;;;;;;;8.80;7.88;;;;;;;;;;5035150;28;20386;-63
2022/06/30 14:50:15;;;;;;;8.82;7.88;;;;;;;;;;5034640;28;20037;-64
2022/06/30 14:52:43;;;;;;;8.93;7.47;;;;;;;;;;5034812;28;20025;-63
2022/06/30 14:55:09;;;;;;;9.57;8.25;;;;;;;;;;5034258;28;20056;-63
2022/06/30 14:57:40;;;;;;;8.40;6.32;;;;;;;;;;5034781;28;20108;-63
2022/06/30 15:00:08;;;;;;;8.40;6.78;;;;;;;;;;5034903;28;20527;-63